createdAt,value
2023-01-17T00:00:03.743Z,97028.84
2023-01-17T00:02:32.970Z,97024.38
2023-01-17T00:05:18.250Z,97021.66
2023-01-17T00:08:04.008Z,97030.69
2023-01-17T00:10:31.392Z,97017.25
2023-01-17T00:13:03.503Z,97026.25
2023-01-17T00:15:31.585Z,97026.06
2023-01-17T00:17:59.166Z,97022.31
2023-01-17T00:20:47.409Z,97021.88
2023-01-17T00:23:35.989Z,97019.50
2023-01-17T00:26:04.505Z,97028.16
2023-01-17T00:28:39.520Z,97017.97
2023-01-17T00:31:08.624Z,97015.75
2023-01-17T00:33:35.796Z,97024.28
2023-01-17T00:36:03.942Z,97013.91
2023-01-17T00:38:33.352Z,97009.94
2023-01-17T00:41:18.317Z,97020.41
2023-01-17T00:44:03.612Z,97024.16
2023-01-17T00:46:49.263Z,97022.47
2023-01-17T00:49:34.761Z,97018.81
2023-01-17T00:52:20.544Z,97023.94
2023-01-17T00:55:06.083Z,97020.13
2023-01-17T00:57:51.708Z,97030.53
2023-01-17T01:00:37.849Z,97026.34
2023-01-17T01:03:30.105Z,97023.13
2023-01-17T01:06:15.375Z,97022.09
2023-01-17T01:09:01.098Z,97026.31
2023-01-17T01:11:46.490Z,97026.63
2023-01-17T01:14:32.219Z,97018.88
2023-01-17T01:17:17.489Z,97024.03
2023-01-17T01:20:03.179Z,97009.66
2023-01-17T01:22:48.823Z,97010.03
2023-01-17T01:25:34.342Z,97005.75
2023-01-17T01:28:29.985Z,97019.38
2023-01-17T01:31:18.493Z,97020.78
2023-01-17T01:33:45.407Z,97024.28
2023-01-17T01:36:12.438Z,97017.56
2023-01-17T01:38:39.871Z,97007.25
2023-01-17T01:41:06.836Z,97017.69
2023-01-17T01:43:44.325Z,97023.53
2023-01-17T01:46:30.397Z,97004.56
2023-01-17T01:49:13.578Z,96997.41
2023-01-17T01:51:43.433Z,97012.53
2023-01-17T01:54:30.897Z,96993.59
2023-01-17T01:57:00.747Z,96982.66
2023-01-17T01:59:27.823Z,96983.66
2023-01-17T02:01:56.435Z,96990.25
2023-01-17T02:04:25.367Z,96988.38
2023-01-17T02:06:59.912Z,96994.53
2023-01-17T02:09:27.238Z,96986.75
2023-01-17T02:11:54.753Z,96985.59
2023-01-17T02:14:22.899Z,96975.28
2023-01-17T02:17:20.390Z,96961.81
2023-01-17T02:19:56.211Z,96961.47
2023-01-17T02:23:01.605Z,96959.16
2023-01-17T02:25:49.774Z,96967.63
2023-01-17T02:28:27.789Z,96967.34
2023-01-17T02:31:05.563Z,96958.06
2023-01-17T02:33:32.429Z,96944.63
2023-01-17T02:36:20.171Z,96924.84
2023-01-17T02:39:03.143Z,96930.69
2023-01-17T02:41:37.035Z,96918.84
2023-01-17T02:44:05.157Z,96905.63
2023-01-17T02:46:32.028Z,96905.00
2023-01-17T02:49:00.500Z,96901.78
2023-01-17T02:51:44.957Z,96899.34
2023-01-17T02:54:35.689Z,96903.13
2023-01-17T02:57:17.896Z,96908.31
2023-01-17T03:00:05.324Z,96911.59
2023-01-17T03:02:58.185Z,96911.41
2023-01-17T03:05:48.042Z,96912.38
2023-01-17T03:08:15.923Z,96907.31
2023-01-17T03:10:44.427Z,96907.91
2023-01-17T03:13:11.399Z,96904.44
2023-01-17T03:15:40.207Z,96904.28
2023-01-17T03:18:12.700Z,96892.25
2023-01-17T03:20:39.764Z,96890.09
2023-01-17T03:23:06.812Z,96887.31
2023-01-17T03:25:34.111Z,96897.34
2023-01-17T03:28:00.962Z,96902.91
2023-01-17T03:30:28.006Z,96909.94
2023-01-17T03:32:54.964Z,96905.41
2023-01-17T03:35:21.968Z,96899.84
2023-01-17T03:37:48.873Z,96904.91
2023-01-17T03:40:15.800Z,96899.13
2023-01-17T03:42:42.895Z,96899.56
2023-01-17T03:45:10.162Z,96895.19
2023-01-17T03:47:37.136Z,96900.91
2023-01-17T03:50:04.649Z,96885.03
2023-01-17T03:52:31.527Z,96896.94
2023-01-17T03:54:58.502Z,96890.47
2023-01-17T03:57:25.461Z,96892.22
2023-01-17T03:59:52.294Z,96888.03
2023-01-17T04:02:19.348Z,96881.72
2023-01-17T04:04:46.389Z,96895.00
2023-01-17T04:07:13.281Z,96917.25
2023-01-17T04:09:40.177Z,96920.22
2023-01-17T04:12:07.295Z,96926.91
2023-01-17T04:14:34.169Z,96925.94
2023-01-17T04:17:01.585Z,96923.16
2023-01-17T04:19:28.747Z,96929.72
2023-01-17T04:21:55.775Z,96926.09
2023-01-17T04:24:22.682Z,96922.69
2023-01-17T04:26:49.531Z,96920.09
2023-01-17T04:29:16.401Z,96917.91
2023-01-17T04:31:43.292Z,96921.88
2023-01-17T04:34:10.415Z,96934.31
2023-01-17T04:36:38.131Z,96930.63
2023-01-17T04:39:05.292Z,96918.53
2023-01-17T04:41:32.199Z,96926.94
2023-01-17T04:43:59.067Z,96950.22
2023-01-17T04:46:26.079Z,96935.16
2023-01-17T04:48:53.024Z,96941.50
2023-01-17T04:51:19.934Z,96949.31
2023-01-17T04:53:46.998Z,96938.00
2023-01-17T04:56:13.953Z,96940.88
2023-01-17T04:58:40.862Z,96938.91
2023-01-17T05:01:08.644Z,96952.53
2023-01-17T05:03:35.661Z,96947.34
2023-01-17T05:06:02.915Z,96949.78
2023-01-17T05:08:29.927Z,96949.53
2023-01-17T05:10:57.218Z,96960.97
2023-01-17T05:13:24.166Z,96954.28
2023-01-17T05:15:51.190Z,96939.13
2023-01-17T05:18:18.669Z,96938.50
2023-01-17T05:20:45.721Z,96931.50
2023-01-17T05:23:12.874Z,96927.22
2023-01-17T05:25:44.847Z,96932.72
2023-01-17T05:28:15.272Z,96927.34
2023-01-17T05:30:42.260Z,96926.38
2023-01-17T05:33:10.343Z,96927.38
2023-01-17T05:35:37.857Z,96939.53
2023-01-17T05:38:05.138Z,96941.13
2023-01-17T05:40:33.500Z,96963.75
2023-01-17T05:43:01.705Z,96974.69
2023-01-17T05:45:29.995Z,96970.44
2023-01-17T05:47:58.560Z,96969.34
2023-01-17T05:50:31.939Z,96977.03
2023-01-17T05:53:04.460Z,96976.13
2023-01-17T05:55:31.983Z,96980.91
2023-01-17T05:57:59.661Z,96976.97
2023-01-17T06:00:27.023Z,96981.59
2023-01-17T06:02:56.250Z,96988.69
2023-01-17T06:05:24.251Z,96994.25
2023-01-17T06:07:51.234Z,96990.63
2023-01-17T06:10:20.769Z,96981.94
2023-01-17T06:12:48.057Z,96985.06
2023-01-17T06:15:16.909Z,96986.72
2023-01-17T06:17:44.008Z,96970.03
2023-01-17T06:20:12.160Z,96971.00
2023-01-17T06:22:39.098Z,96959.19
2023-01-17T06:25:07.465Z,96957.91
2023-01-17T06:27:34.495Z,96966.75
2023-01-17T06:30:01.536Z,96973.78
2023-01-17T06:32:28.468Z,96981.66
2023-01-17T06:34:55.382Z,96996.06
2023-01-17T06:37:22.556Z,97002.97
2023-01-17T06:39:49.517Z,97013.13
2023-01-17T06:42:16.453Z,97003.94
2023-01-17T06:44:43.381Z,97012.91
2023-01-17T06:47:10.343Z,97011.28
2023-01-17T06:49:37.256Z,97011.66
2023-01-17T06:52:04.343Z,97016.09
2023-01-17T06:54:31.212Z,97014.78
2023-01-17T06:56:58.312Z,97012.16
2023-01-17T06:59:25.344Z,97010.97
2023-01-17T07:01:52.631Z,97011.28
2023-01-17T07:04:19.878Z,96997.38
2023-01-17T07:06:46.955Z,96991.31
2023-01-17T07:09:13.806Z,96988.53
2023-01-17T07:11:40.721Z,96993.59
2023-01-17T07:14:13.071Z,96997.84
2023-01-17T07:16:40.022Z,96991.94
2023-01-17T07:19:06.886Z,96997.88
2023-01-17T07:21:33.831Z,96996.91
2023-01-17T07:24:00.663Z,96998.88
2023-01-17T07:26:27.585Z,96998.03
2023-01-17T07:28:54.569Z,97004.25
2023-01-17T07:31:21.477Z,96999.66
2023-01-17T07:33:48.441Z,97012.44
2023-01-17T07:36:15.394Z,97016.25
2023-01-17T07:38:44.038Z,97013.59
2023-01-17T07:41:11.146Z,97017.81
2023-01-17T07:43:38.198Z,97016.78
2023-01-17T07:46:08.133Z,97019.28
2023-01-17T07:48:35.542Z,97021.13
2023-01-17T07:51:02.485Z,97016.53
2023-01-17T07:53:33.095Z,97018.81
2023-01-17T07:56:07.759Z,97017.09
2023-01-17T07:58:35.389Z,97017.91
2023-01-17T08:01:07.734Z,97015.16
2023-01-17T08:03:39.911Z,97016.34
2023-01-17T08:06:20.378Z,97015.31
2023-01-17T08:08:47.517Z,97005.59
2023-01-17T08:11:15.203Z,97004.88
2023-01-17T08:13:42.294Z,97003.84
2023-01-17T08:16:13.396Z,97002.00
2023-01-17T08:18:41.130Z,97000.66
2023-01-17T08:21:16.880Z,97007.38
2023-01-17T08:23:53.053Z,97012.84
2023-01-17T08:26:22.508Z,97014.28
2023-01-17T08:28:55.348Z,97006.25
2023-01-17T08:31:22.674Z,96994.91
2023-01-17T08:33:49.684Z,96983.69
2023-01-17T08:36:17.053Z,96978.13
2023-01-17T08:38:44.139Z,96985.56
2023-01-17T08:41:11.056Z,96979.56
2023-01-17T08:43:38.065Z,96985.78
2023-01-17T08:46:06.649Z,96985.94
2023-01-17T08:48:33.594Z,96985.38
2023-01-17T08:51:02.487Z,96984.97
2023-01-17T08:53:29.795Z,96985.59
2023-01-17T08:56:01.328Z,96980.34
2023-01-17T08:58:30.678Z,96978.00
2023-01-17T09:01:02.999Z,96974.44
2023-01-17T09:03:31.103Z,96964.66
2023-01-17T09:06:03.339Z,96964.09
2023-01-17T09:08:30.868Z,96954.88
2023-01-17T09:10:58.243Z,96950.88
2023-01-17T09:13:25.218Z,96935.81
2023-01-17T09:15:56.730Z,96921.19
2023-01-17T09:18:24.909Z,96915.59
2023-01-17T09:20:55.212Z,96922.56
2023-01-17T09:23:22.877Z,96908.53
2023-01-17T09:25:58.048Z,96904.28
2023-01-17T09:28:27.014Z,96914.09
2023-01-17T09:30:54.548Z,96908.50
2023-01-17T09:33:24.557Z,96907.44
2023-01-17T09:35:51.557Z,96911.06
2023-01-17T09:38:18.435Z,96921.13
2023-01-17T09:40:47.597Z,96922.09
2023-01-17T09:43:48.231Z,96922.94
2023-01-17T10:17:54.557Z,96920.84
2023-01-17T10:20:56.777Z,96913.28
2023-01-17T10:23:46.283Z,96909.06
2023-01-17T10:26:18.995Z,96898.50
2023-01-17T10:28:51.673Z,96900.94
2023-01-17T10:31:28.826Z,96901.28
2023-01-17T10:34:15.370Z,96905.38
2023-01-17T10:36:50.475Z,96895.56
2023-01-17T10:39:22.720Z,96900.63
2023-01-17T10:41:55.934Z,96898.53
2023-01-17T10:44:35.113Z,96904.84
2023-01-17T10:47:11.044Z,96902.44
2023-01-17T10:49:46.826Z,96910.25
2023-01-17T10:52:23.194Z,96905.34
2023-01-17T10:54:53.833Z,96897.28
2023-01-17T10:57:24.108Z,96900.34
2023-01-17T10:59:52.455Z,96895.03
2023-01-17T11:02:22.109Z,96898.28
2023-01-17T11:04:54.504Z,96890.66
2023-01-17T11:07:26.763Z,96890.88
2023-01-17T11:09:58.806Z,96898.91
2023-01-17T11:12:44.234Z,96897.63
2023-01-17T11:15:11.066Z,96896.25
2023-01-17T11:17:41.885Z,96896.84
2023-01-17T11:20:22.892Z,96882.63
2023-01-17T11:23:22.691Z,96891.44
2023-01-17T11:25:55.187Z,96890.31
2023-01-17T11:28:26.309Z,96889.94
2023-01-17T11:30:56.192Z,96895.50
2023-01-17T11:33:35.556Z,96889.97
2023-01-17T11:36:02.880Z,96880.75
2023-01-17T11:38:29.898Z,96868.38
2023-01-17T11:41:16.727Z,96870.41
2023-01-17T11:43:58.185Z,96870.22
2023-01-17T11:46:26.296Z,96862.69
2023-01-17T11:48:56.409Z,96861.94
2023-01-17T11:51:41.452Z,96866.63
2023-01-17T11:54:22.476Z,96872.59
2023-01-17T11:56:50.691Z,96862.09
2023-01-17T11:59:33.561Z,96872.94
2023-01-17T12:02:37.231Z,96867.44
2023-01-17T12:05:23.605Z,96867.66
2023-01-17T12:08:00.402Z,96859.72
2023-01-17T12:10:44.806Z,96856.41
2023-01-17T12:13:58.664Z,96858.44
2023-01-17T12:16:31.337Z,96859.63
2023-01-17T12:19:34.211Z,96861.13
2023-01-17T12:22:33.923Z,96863.97
2023-01-17T12:25:23.188Z,96865.13
2023-01-17T12:28:17.745Z,96862.50
2023-01-17T12:31:20.377Z,96861.72
2023-01-17T12:33:58.091Z,96861.56
2023-01-17T12:36:31.144Z,96867.28
2023-01-17T12:39:01.426Z,96860.53
2023-01-17T12:41:47.748Z,96850.59
2023-01-17T12:44:18.917Z,96848.94
2023-01-17T12:47:00.992Z,96857.09
2023-01-17T12:49:46.794Z,96853.41
2023-01-17T12:52:35.433Z,96864.63
2023-01-17T12:55:09.567Z,96855.03
2023-01-17T12:57:45.447Z,96848.72
2023-01-17T13:00:19.759Z,96859.53
2023-01-17T13:03:16.310Z,96861.75
2023-01-17T13:05:46.621Z,96869.50
2023-01-17T13:08:13.492Z,96862.16
2023-01-17T13:10:40.382Z,96865.41
2023-01-17T13:13:30.599Z,96870.28
2023-01-17T13:16:18.147Z,96870.72
2023-01-17T13:18:49.184Z,96868.28
2023-01-17T13:21:32.968Z,96863.41
2023-01-17T13:24:00.258Z,96863.19
2023-01-17T13:26:29.737Z,96858.91
2023-01-17T13:29:37.685Z,96852.00
2023-01-17T13:32:22.796Z,96847.91
2023-01-17T13:35:36.143Z,96844.66
2023-01-17T13:38:11.957Z,96851.56
2023-01-17T13:40:54.994Z,96844.56
2023-01-17T13:43:28.804Z,96850.72
2023-01-17T13:46:03.265Z,96856.38
2023-01-17T13:48:32.371Z,96863.47
2023-01-17T13:51:06.289Z,96859.63
2023-01-17T13:53:37.007Z,96873.63
2023-01-17T13:56:15.721Z,96869.47
2023-01-17T13:58:47.272Z,96872.16
2023-01-17T14:01:14.698Z,96876.63
2023-01-17T14:03:50.591Z,96864.44
2023-01-17T14:06:33.479Z,96876.88
2023-01-17T14:09:23.874Z,96875.56
2023-01-17T14:12:06.049Z,96879.97
2023-01-17T14:14:42.921Z,96893.63
2023-01-17T14:17:20.557Z,96881.81
2023-01-17T14:20:01.894Z,96882.63
2023-01-17T14:22:33.287Z,96883.66
2023-01-17T14:25:00.119Z,96882.69
2023-01-17T14:27:29.282Z,96883.03
2023-01-17T14:29:59.019Z,96885.31
2023-01-17T14:32:37.497Z,96880.28
2023-01-17T14:35:05.829Z,96887.53
2023-01-17T14:37:32.666Z,96882.78
2023-01-17T14:40:01.135Z,96878.78
2023-01-17T14:42:33.271Z,96884.34
2023-01-17T14:45:07.813Z,96883.28
2023-01-17T14:47:39.478Z,96882.78
2023-01-17T14:50:19.598Z,96886.06
2023-01-17T14:52:46.591Z,96891.16
2023-01-17T14:55:20.753Z,96905.81
2023-01-17T14:57:56.258Z,96902.91
2023-01-17T15:00:25.593Z,96908.19
2023-01-17T15:02:53.903Z,96918.34
2023-01-17T15:05:23.635Z,96923.03
2023-01-17T15:07:54.136Z,96930.91
2023-01-17T15:10:25.324Z,96935.13
2023-01-17T15:12:52.852Z,96925.91
2023-01-17T15:15:35.482Z,96937.41
2023-01-17T15:18:14.282Z,96932.50
2023-01-17T15:20:52.227Z,96934.56
2023-01-17T15:23:21.958Z,96925.63
2023-01-17T15:25:50.519Z,96920.78
2023-01-17T15:28:18.104Z,96919.97
2023-01-17T15:31:06.744Z,96921.81
2023-01-17T15:33:35.389Z,96918.13
2023-01-17T15:36:06.718Z,96923.25
2023-01-17T15:38:39.167Z,96920.84
2023-01-17T15:41:18.012Z,96937.41
2023-01-17T15:43:45.472Z,96932.69
2023-01-17T15:46:29.066Z,96933.69
2023-01-17T15:49:26.257Z,96938.03
2023-01-17T15:52:15.290Z,96941.91
2023-01-17T15:54:56.621Z,96945.34
2023-01-17T15:57:36.934Z,96937.56
2023-01-17T16:00:20.785Z,96936.16
2023-01-17T16:02:55.900Z,96927.00
2023-01-17T16:05:27.741Z,96929.28
2023-01-17T16:07:56.849Z,96927.47
2023-01-17T16:10:24.981Z,96933.63
2023-01-17T16:12:53.814Z,96935.00
2023-01-17T16:15:22.163Z,96930.66
2023-01-17T16:17:52.050Z,96933.19
2023-01-17T16:20:34.846Z,96925.94
2023-01-17T16:23:02.918Z,96930.19
2023-01-17T16:25:33.087Z,96935.75
2023-01-17T16:28:00.385Z,96933.38
2023-01-17T16:30:28.088Z,96932.13
2023-01-17T16:32:56.656Z,96934.66
2023-01-17T16:35:27.765Z,96931.28
2023-01-17T16:38:00.163Z,96935.22
2023-01-17T16:40:33.040Z,96938.78
2023-01-17T16:43:01.158Z,96944.06
2023-01-17T16:45:28.264Z,96943.13
2023-01-17T16:47:55.261Z,96944.78
2023-01-17T16:50:24.763Z,96942.50
2023-01-17T16:52:53.102Z,96939.41
2023-01-17T16:55:22.922Z,96937.59
2023-01-17T16:57:51.542Z,96948.06
2023-01-17T17:00:19.529Z,96961.31
2023-01-17T17:02:51.004Z,96960.50
2023-01-17T17:05:18.314Z,96961.22
2023-01-17T17:07:46.288Z,96959.59
2023-01-17T17:10:16.282Z,96962.22
2023-01-17T17:12:43.598Z,96962.16
2023-01-17T17:15:12.039Z,96955.78
2023-01-17T17:17:41.205Z,96951.31
2023-01-17T17:20:14.592Z,96953.72
2023-01-17T17:22:44.120Z,96950.28
2023-01-17T17:25:12.311Z,96950.06
2023-01-17T17:27:39.839Z,96945.50
2023-01-17T17:30:07.405Z,96947.16
2023-01-17T17:32:34.641Z,96955.13
2023-01-17T17:35:01.510Z,96942.00
2023-01-17T17:37:29.252Z,96941.97
2023-01-17T17:39:57.042Z,96949.13
2023-01-17T17:42:24.318Z,96946.63
2023-01-17T17:44:51.237Z,96948.78
2023-01-17T17:47:18.567Z,96948.50
2023-01-17T17:49:45.645Z,96951.50
2023-01-17T17:52:13.145Z,96949.53
2023-01-17T17:54:40.409Z,96952.34
2023-01-17T17:57:07.717Z,96953.06
2023-01-17T17:59:34.675Z,96954.91
2023-01-17T18:02:01.937Z,96957.22
2023-01-17T18:04:28.985Z,96949.34
2023-01-17T18:06:57.664Z,96951.34
2023-01-17T18:09:24.592Z,96947.00
2023-01-17T18:11:51.544Z,96949.63
2023-01-17T18:14:21.217Z,96948.34
2023-01-17T18:16:48.816Z,96950.34
2023-01-17T18:19:21.961Z,96952.16
2023-01-17T18:21:51.447Z,96941.88
2023-01-17T18:24:21.878Z,96953.44
2023-01-17T18:26:54.443Z,96953.16
2023-01-17T18:29:22.762Z,96950.88
2023-01-17T18:31:51.121Z,96947.50
2023-01-17T18:34:24.323Z,96945.41
2023-01-17T18:36:52.832Z,96949.72
2023-01-17T18:39:25.419Z,96948.06
2023-01-17T18:41:53.253Z,96951.09
2023-01-17T18:44:22.116Z,96946.78
2023-01-17T18:46:55.961Z,96960.44
2023-01-17T18:49:23.007Z,96950.88
2023-01-17T18:51:51.437Z,96941.44
2023-01-17T18:54:20.260Z,96948.34
2023-01-17T18:56:47.255Z,96943.28
2023-01-17T18:59:16.171Z,96933.53
2023-01-17T19:01:43.822Z,96947.53
2023-01-17T19:04:12.907Z,96937.03
2023-01-17T19:06:42.372Z,96925.81
2023-01-17T19:09:11.048Z,96932.78
2023-01-17T19:11:38.221Z,96932.09
2023-01-17T19:14:07.003Z,96934.94
2023-01-17T19:16:39.273Z,96933.28
2023-01-17T19:19:12.189Z,96933.56
2023-01-17T19:21:39.153Z,96932.31
2023-01-17T19:24:06.912Z,96938.13
2023-01-17T19:26:34.298Z,96951.13
2023-01-17T19:29:05.274Z,96939.59
2023-01-17T19:31:39.216Z,96940.50
2023-01-17T19:34:06.291Z,96943.84
2023-01-17T19:36:37.697Z,96933.06
2023-01-17T19:39:07.423Z,96936.34
2023-01-17T19:41:37.363Z,96935.16
2023-01-17T19:44:07.298Z,96924.53
2023-01-17T19:46:35.432Z,96923.25
2023-01-17T19:49:03.616Z,96914.03
2023-01-17T19:51:30.625Z,96942.44
2023-01-17T19:54:01.368Z,96932.91
2023-01-17T19:56:29.364Z,96937.97
2023-01-17T19:59:01.531Z,96931.22
2023-01-17T20:01:31.785Z,96931.88
2023-01-17T20:04:00.575Z,96945.75
2023-01-17T20:06:31.267Z,96944.66
2023-01-17T20:08:58.422Z,96925.00
2023-01-17T20:11:27.431Z,96933.38
2023-01-17T20:13:57.062Z,96925.94
2023-01-17T20:16:26.228Z,96924.09
2023-01-17T20:18:53.155Z,96919.25
2023-01-17T20:21:26.015Z,96912.59
2023-01-17T20:23:54.547Z,96899.19
2023-01-17T20:26:34.870Z,96900.13
2023-01-17T20:29:10.339Z,96902.25
2023-01-17T20:31:39.176Z,96899.50
2023-01-17T20:34:07.249Z,96900.56
2023-01-17T20:36:34.680Z,96897.16
2023-01-17T20:39:04.456Z,96895.41
2023-01-17T20:41:32.712Z,96902.44
2023-01-17T20:44:01.902Z,96899.38
2023-01-17T20:46:33.353Z,96894.72
2023-01-17T20:49:04.044Z,96889.50
2023-01-17T20:51:34.467Z,96889.72
2023-01-17T20:54:03.769Z,96885.94
2023-01-17T20:56:34.790Z,96885.28
2023-01-17T20:59:06.399Z,96880.28
2023-01-17T21:01:34.601Z,96874.88
2023-01-17T21:04:03.269Z,96880.13
2023-01-17T21:06:30.597Z,96887.63
2023-01-17T21:08:57.720Z,96881.47
2023-01-17T21:11:27.650Z,96881.44
2023-01-17T21:13:54.833Z,96877.81
2023-01-17T21:16:23.143Z,96896.06
2023-01-17T21:18:51.839Z,96887.34
2023-01-17T21:21:24.283Z,96895.56
2023-01-17T21:23:53.760Z,96890.75
2023-01-17T21:26:22.438Z,96898.84
2023-01-17T21:28:50.716Z,96896.56
2023-01-17T21:31:26.279Z,96888.03
2023-01-17T21:33:56.706Z,96895.41
2023-01-17T21:36:27.284Z,96892.69
2023-01-17T21:38:57.139Z,96889.03
2023-01-17T21:41:29.459Z,96894.84
2023-01-17T21:43:58.349Z,96887.22
2023-01-17T21:46:26.159Z,96884.13
2023-01-17T21:48:53.049Z,96874.75
2023-01-17T21:51:21.812Z,96880.06
2023-01-17T21:53:49.108Z,96867.69
2023-01-17T21:56:34.729Z,96873.22
2023-01-17T21:59:01.776Z,96885.00
2023-01-17T22:01:32.394Z,96878.50
2023-01-17T22:04:02.866Z,96876.91
2023-01-17T22:06:32.500Z,96868.09
2023-01-17T22:08:59.365Z,96872.63
2023-01-17T22:11:30.037Z,96860.63
2023-01-17T22:13:58.973Z,96870.72
2023-01-17T22:16:26.576Z,96864.66
2023-01-17T22:18:53.539Z,96860.94
2023-01-17T22:21:25.876Z,96858.13
2023-01-17T22:23:58.520Z,96864.59
2023-01-17T22:26:30.781Z,96857.44
2023-01-17T22:29:01.147Z,96854.91
2023-01-17T22:31:28.674Z,96860.97
2023-01-17T22:34:01.041Z,96846.34
2023-01-17T22:36:29.067Z,96854.81
2023-01-17T22:38:56.135Z,96844.56
2023-01-17T22:41:25.539Z,96846.94
2023-01-17T22:43:54.125Z,96842.63
2023-01-17T22:46:25.050Z,96838.50
2023-01-17T22:48:53.072Z,96825.31
2023-01-17T22:51:21.678Z,96834.84
2023-01-17T22:53:53.752Z,96834.47
2023-01-17T22:56:28.826Z,96823.94
2023-01-17T22:58:55.979Z,96810.28
2023-01-17T23:01:25.551Z,96824.34
2023-01-17T23:03:55.135Z,96836.97
2023-01-17T23:06:28.392Z,96836.97
2023-01-17T23:08:57.693Z,96834.84
2023-01-17T23:11:43.958Z,96839.34
2023-01-17T23:14:53.567Z,96819.28
2023-01-17T23:17:40.374Z,96825.09
2023-01-17T23:20:10.571Z,96826.13
2023-01-17T23:22:37.807Z,96830.81
2023-01-17T23:25:06.752Z,96823.16
2023-01-17T23:27:59.678Z,96820.41
2023-01-17T23:30:35.775Z,96822.16
2023-01-17T23:33:14.375Z,96822.97
2023-01-17T23:35:43.468Z,96825.31
2023-01-17T23:38:34.131Z,96823.69
2023-01-17T23:41:25.112Z,96816.44
2023-01-17T23:43:53.637Z,96826.28
2023-01-17T23:46:21.313Z,96824.69
2023-01-17T23:48:48.860Z,96817.25
2023-01-17T23:51:16.032Z,96815.88
2023-01-17T23:53:43.294Z,96813.75
2023-01-17T23:56:26.637Z,96813.75
2023-01-17T23:58:53.557Z,96821.19
